Terminal Aerodrome Forecast
Issued by NWS Missoula, MT

Home | Current Version | Previous Version | Text Only | Print | Product List | Glossary On
Versions: 1 2 3 4 5 6 7 8 9 10 11 12 13 14 15 16 17 18 19
103
FTUS45 KMSO 232320
TAFMSO
TAF
KMSO 232320Z 2400/2424 33012G20KT P6SM FEW070
     FM240100 30008KT P6SM SCT150
     FM242300 29012KT P6SM VCSH BKN040 OVC060=

USA.gov is the U.S. government's official web portal to all federal, state and local government web resources and services.